Airfield :







YOU CAN JOIN US ON...

 
LOGIN :

Register | Disclaimer

   EN    FR    IT 

 









Legend :    VFR   Marginal VFR   IFR   Intensive IFR   Very Intensive IFR
Visi :
Ceiling :
>= 8 km
>= 3000ft
5 to 8 km
1000 to 3000 ft
1500m to 5 km
500 to 1000 ft
800 to 1500m
200 to 500 ft
< 800m
< 200 ft
Symbols :   Thunderstorms  Fog  Heavy snow  Heavy precipitations  Wind > 20 kt






- Airport Elevation : 192 ft
- IATA code : BGR


KBGR - Bangor International

CURRENT METAR :
  • 270153Z 22003KT 7SM FEW044 21/19 A2981 RMK AO2 SLP093 T02110194

EXPIRED METARs :
  • 270053Z 19004KT 7SM FEW055 22/20 A2980 RMK AO2 RAB28E38 SLP088 P0000 T02170200
  • 262353Z 19006KT 9SM CLR 23/21 A2979 RMK AO2 SLP084 T02330206 10272 20233 53003

TAF KBGR
Valid from the 27 at 00:00 until the 28 at 00:00 UTC


262320Z 2700/2724 17004KT 5SM HZ SCT040
FM270700 25003KT 2SM BCFG FEW002 SCT250
FM271200 30008G16KT P6SM SCT100
KZBW FIR / North America



MET'MAP, your aeronautical weather chart ! - Copyright ORBIFLY December 2007 - Disclaimer

ORBIFLY MET'MAP TEAM :

Programming & Development : Alexandra Zaïnal
Concept & original design : Baudouin d'Aumeries
Assistance for programming : Marc-Olivier Méhu
Technical & hardware support : Manuel Goepfert

Contact : metmap@orbifly.com




SOURCES & CREDITS :

   NOAA